Time;durP1;ratioP1;P1;durP2;ratioP2;P2;SDS_P1;SDS_P2;PMS_P1;PMS_P2;Temp;Humidity;BMP_temperature;BMP_pressure;BME280_temperature;BME280_humidity;BME280_pressure;Samples;Min_cycle;Max_cycle;Signal;HPM_P1;HPM_P2
2024/03/16 00:01:22;;;;;;;1.80;0.82;;;11.50;99.90;;;;;;4968523;28;20440;-70
2024/03/16 00:03:49;;;;;;;0.63;0.40;;;11.40;99.90;;;;;;4971763;28;20027;-70
2024/03/16 00:06:15;;;;;;;0.30;0.30;;;11.40;99.90;;;;;;4970723;28;20031;-69
2024/03/16 00:08:40;;;;;;;1.58;0.50;;;11.40;99.90;;;;;;4971211;28;20027;-69
2024/03/16 00:11:06;;;;;;;0.75;0.35;;;11.40;99.90;;;;;;4968407;28;20035;-69
2024/03/16 00:13:34;;;;;;;0.73;0.40;;;11.40;99.90;;;;;;4975357;28;20857;-70
2024/03/16 00:16:00;;;;;;;1.35;0.55;;;11.30;99.90;;;;;;4972616;28;20026;-70
2024/03/16 00:18:26;;;;;;;0.75;0.30;;;11.30;99.90;;;;;;4972826;28;20038;-70
2024/03/16 00:20:52;;;;;;;0.93;0.50;;;11.30;99.90;;;;;;4967842;28;20436;-70
2024/03/16 00:23:19;;;;;;;1.00;0.50;;;11.20;99.90;;;;;;4972602;28;20502;-70
2024/03/16 00:25:45;;;;;;;0.65;0.50;;;11.20;99.90;;;;;;4969450;28;20490;-70
2024/03/16 00:28:10;;;;;;;0.60;0.35;;;11.20;99.90;;;;;;4991131;28;20031;-70
2024/03/16 00:30:37;;;;;;;0.70;0.50;;;11.10;99.90;;;;;;4987452;28;20110;-70
2024/03/16 00:33:03;;;;;;;1.30;0.35;;;11.00;99.90;;;;;;4980031;28;20030;-70
2024/03/16 00:35:29;;;;;;;1.00;0.43;;;11.00;99.90;;;;;;4975188;28;20579;-70
2024/03/16 00:37:55;;;;;;;1.38;0.50;;;11.00;99.90;;;;;;4977431;28;20038;-69
2024/03/16 00:40:21;;;;;;;5.07;0.63;;;11.00;99.90;;;;;;4974733;28;20114;-69
2024/03/16 00:42:46;;;;;;;2.83;1.20;;;10.90;99.90;;;;;;4976407;28;20053;-71
2024/03/16 00:45:13;;;;;;;3.25;1.35;;;10.90;99.90;;;;;;4971970;28;20033;-69
2024/03/16 00:47:38;;;;;;;2.45;0.98;;;10.90;99.90;;;;;;4970440;28;20026;-70
2024/03/16 00:50:05;;;;;;;3.33;1.23;;;10.90;99.90;;;;;;4972384;28;20030;-71
2024/03/16 00:52:30;;;;;;;0.80;0.35;;;10.80;99.90;;;;;;4972330;28;20066;-71
2024/03/16 00:54:56;;;;;;;1.13;0.52;;;10.80;99.90;;;;;;4972144;28;20066;-71
2024/03/16 00:57:23;;;;;;;1.63;0.40;;;10.80;99.90;;;;;;4973485;28;20027;-71
2024/03/16 00:59:49;;;;;;;1.55;0.80;;;10.80;99.90;;;;;;4955413;28;20054;-71
2024/03/16 01:02:15;;;;;;;1.38;0.80;;;10.80;99.90;;;;;;4969932;28;20027;-71
2024/03/16 01:04:40;;;;;;;0.75;0.45;;;10.80;99.90;;;;;;4970777;28;20153;-71
2024/03/16 01:07:06;;;;;;;1.20;0.55;;;10.80;99.90;;;;;;4971920;28;20030;-71
2024/03/16 01:09:32;;;;;;;0.25;0.20;;;10.70;99.90;;;;;;4972188;28;20038;-71
2024/03/16 01:11:58;;;;;;;1.45;0.60;;;10.70;99.90;;;;;;4969797;28;20035;-71
2024/03/16 01:14:23;;;;;;;1.10;0.50;;;10.70;99.90;;;;;;4971815;28;20061;-71
2024/03/16 01:16:49;;;;;;;0.50;0.40;;;10.70;99.90;;;;;;4969422;28;20050;-71
2024/03/16 01:19:15;;;;;;;5.53;1.33;;;10.70;99.90;;;;;;4972058;28;20023;-68
2024/03/16 01:21:42;;;;;;;6.90;0.60;;;10.80;99.90;;;;;;4968166;28;20081;-71
2024/03/16 01:24:08;;;;;;;0.63;0.30;;;10.90;99.90;;;;;;4974519;28;20030;-70
2024/03/16 01:26:33;;;;;;;0.15;0.10;;;10.80;99.90;;;;;;4974873;28;20038;-70
2024/03/16 01:29:01;;;;;;;5.57;0.55;;;10.80;99.90;;;;;;4977340;28;20023;-71
2024/03/16 01:31:29;;;;;;;0.30;0.28;;;10.80;99.90;;;;;;4974374;28;20042;-70
2024/03/16 01:33:55;;;;;;;1.98;0.30;;;10.70;99.90;;;;;;4971674;28;20490;-70
2024/03/16 01:36:20;;;;;;;4.15;1.40;;;10.80;99.90;;;;;;4969539;28;20035;-70
2024/03/16 01:38:46;;;;;;;0.85;0.28;;;10.80;99.90;;;;;;4974735;28;20034;-70
2024/03/16 01:41:12;;;;;;;2.42;0.75;;;10.80;99.90;;;;;;4971887;28;20033;-70
2024/03/16 01:43:38;;;;;;;1.08;0.40;;;10.70;99.90;;;;;;4986844;28;20038;-70
2024/03/16 01:46:06;;;;;;;7.55;0.77;;;10.70;99.90;;;;;;4974496;28;20026;-71
2024/03/16 01:48:32;;;;;;;4.07;0.45;;;10.70;99.90;;;;;;4970157;28;20058;-70
2024/03/16 01:50:58;;;;;;;0.90;0.45;;;10.60;99.90;;;;;;4967979;28;20109;-70
2024/03/16 01:53:24;;;;;;;3.35;1.25;;;10.60;99.90;;;;;;4971620;28;20031;-70
2024/03/16 01:55:50;;;;;;;1.90;0.85;;;10.60;99.90;;;;;;4967936;28;20396;-70
2024/03/16 01:58:16;;;;;;;0.47;0.43;;;10.60;99.90;;;;;;4971143;28;20029;-70
2024/03/16 02:00:46;;;;;;;1.08;0.52;;;10.50;99.90;;;;;;4970035;28;20027;-70
2024/03/16 02:03:12;;;;;;;3.13;0.30;;;10.50;99.90;;;;;;4971437;28;20081;-70
2024/03/16 02:05:39;;;;;;;2.72;0.35;;;10.40;99.90;;;;;;4966008;28;20043;-71
2024/03/16 02:08:05;;;;;;;0.85;0.50;;;10.40;99.90;;;;;;4968863;28;20492;-71
2024/03/16 02:10:31;;;;;;;0.70;0.45;;;10.40;99.90;;;;;;4968475;28;20097;-71
2024/03/16 02:12:56;;;;;;;2.20;0.73;;;10.40;99.90;;;;;;4971783;28;20031;-71
2024/03/16 02:15:22;;;;;;;5.47;0.55;;;10.30;99.90;;;;;;4968403;28;20070;-71
2024/03/16 02:17:48;;;;;;;1.10;0.13;;;10.20;99.90;;;;;;4972496;28;20041;-71
2024/03/16 02:20:16;;;;;;;0.80;0.40;;;10.20;99.90;;;;;;4970448;28;20037;-71
2024/03/16 02:22:43;;;;;;;0.10;0.10;;;10.20;99.90;;;;;;4965696;28;20030;-70
2024/03/16 02:25:12;;;;;;;0.95;0.35;;;10.20;99.90;;;;;;4971073;28;20038;-70
2024/03/16 02:27:38;;;;;;;2.00;0.68;;;10.20;99.90;;;;;;4967898;28;20025;-70
2024/03/16 02:30:09;;;;;;;5.03;0.60;;;10.20;99.90;;;;;;4969223;28;20371;-71
2024/03/16 02:32:36;;;;;;;2.33;0.35;;;10.10;99.90;;;;;;4970819;28;20113;-71
2024/03/16 02:35:01;;;;;;;0.28;0.10;;;10.10;99.90;;;;;;4973655;28;20034;-70
2024/03/16 02:37:27;;;;;;;0.45;0.35;;;10.10;99.90;;;;;;4973080;28;20133;-70
2024/03/16 02:39:53;;;;;;;5.85;0.40;;;10.10;99.90;;;;;;4973359;28;20085;-70
2024/03/16 02:42:19;;;;;;;3.13;0.82;;;10.10;99.90;;;;;;4974137;28;20033;-70
2024/03/16 02:44:46;;;;;;;0.20;0.20;;;10.10;99.90;;;;;;4977252;28;20623;-70
2024/03/16 02:47:12;;;;;;;0.65;0.30;;;10.10;99.90;;;;;;4972866;28;20046;-70
2024/03/16 02:49:38;;;;;;;5.03;0.68;;;10.10;99.90;;;;;;4974659;28;20018;-70
2024/03/16 02:52:04;;;;;;;4.90;1.00;;;10.00;99.90;;;;;;4972739;28;20035;-70
2024/03/16 02:54:30;;;;;;;1.08;0.50;;;10.00;99.90;;;;;;4973804;28;20353;-70
2024/03/16 02:56:56;;;;;;;0.30;0.30;;;10.00;99.90;;;;;;4977000;28;20054;-69
2024/03/16 02:59:22;;;;;;;2.40;0.50;;;10.00;99.90;;;;;;4974911;28;20542;-70
2024/03/16 03:01:47;;;;;;;0.75;0.50;;;9.90;99.90;;;;;;4975422;28;20383;-70
2024/03/16 03:04:17;;;;;;;0.95;0.43;;;9.90;99.90;;;;;;4972971;28;20105;-70
2024/03/16 03:06:42;;;;;;;0.80;0.57;;;9.90;99.90;;;;;;4972227;28;20033;-69
2024/03/16 03:09:09;;;;;;;2.17;0.73;;;9.90;99.90;;;;;;4972924;28;20035;-69
2024/03/16 03:11:37;;;;;;;0.57;0.57;;;9.90;99.90;;;;;;4986476;28;20027;-69
2024/03/16 03:14:04;;;;;;;0.40;0.20;;;9.90;99.90;;;;;;4975602;28;20120;-70
2024/03/16 03:16:30;;;;;;;2.90;0.80;;;9.90;99.90;;;;;;4973434;28;20038;-69
2024/03/16 03:18:55;;;;;;;0.88;0.43;;;9.90;99.90;;;;;;4974049;28;20027;-69
2024/03/16 03:21:21;;;;;;;0.65;0.45;;;9.80;99.90;;;;;;4973230;28;20113;-69
2024/03/16 03:23:47;;;;;;;1.30;0.65;;;9.90;99.90;;;;;;4973916;28;20027;-69
2024/03/16 03:26:13;;;;;;;0.77;0.60;;;9.80;99.90;;;;;;4971747;28;20046;-70
2024/03/16 03:28:39;;;;;;;0.45;0.28;;;9.80;99.90;;;;;;4983635;28;20029;-70
2024/03/16 03:31:12;;;;;;;0.40;0.30;;;9.80;99.90;;;;;;4972263;28;20125;-70
2024/03/16 03:33:39;;;;;;;0.28;0.28;;;9.80;99.90;;;;;;4953584;28;20031;-68
2024/03/16 03:36:05;;;;;;;1.45;0.32;;;9.70;99.90;;;;;;4971499;28;20366;-69
2024/03/16 03:38:31;;;;;;;0.20;0.20;;;9.70;99.90;;;;;;4972254;28;20041;-69
2024/03/16 03:40:57;;;;;;;0.43;0.40;;;9.70;99.90;;;;;;4976112;28;20122;-69
2024/03/16 03:43:24;;;;;;;0.35;0.35;;;9.70;99.90;;;;;;4973739;28;20050;-69
2024/03/16 03:45:52;;;;;;;0.68;0.40;;;9.70;99.90;;;;;;4971681;28;20391;-69
2024/03/16 03:50:57;;;;;;;0.50;0.50;;;9.70;99.90;;;;;;4971860;28;20042;-70
2024/03/16 03:53:25;;;;;;;0.40;0.40;;;9.70;99.90;;;;;;4971432;28;20037;-70
2024/03/16 03:55:51;;;;;;;2.00;1.10;;;9.80;99.90;;;;;;4955706;28;20114;-70
2024/03/16 03:58:18;;;;;;;2.00;0.52;;;9.80;99.90;;;;;;4972065;28;20035;-70
2024/03/16 04:00:48;;;;;;;0.35;0.20;;;9.90;99.90;;;;;;4972804;28;20069;-70
2024/03/16 04:03:14;;;;;;;2.67;0.82;;;9.90;99.90;;;;;;4970161;28;20616;-70
2024/03/16 04:05:40;;;;;;;0.95;0.77;;;10.00;99.90;;;;;;4970505;28;20420;-69
2024/03/16 04:08:06;;;;;;;0.82;0.45;;;10.00;99.90;;;;;;4983169;28;20118;-70
2024/03/16 04:10:33;;;;;;;0.15;0.15;;;10.00;99.90;;;;;;4971541;28;20038;-69
2024/03/16 04:12:59;;;;;;;9.02;0.47;;;10.00;99.90;;;;;;4971815;28;20027;-69
2024/03/16 04:15:25;;;;;;;0.70;0.50;;;10.00;99.90;;;;;;4970531;28;20023;-69
2024/03/16 04:17:52;;;;;;;9.88;0.50;;;10.00;99.90;;;;;;4974713;28;20399;-69
2024/03/16 04:20:22;;;;;;;0.75;0.20;;;10.10;99.90;;;;;;4975913;28;20030;-69
2024/03/16 04:22:49;;;;;;;2.03;0.47;;;10.00;99.90;;;;;;4971127;28;20030;-69
2024/03/16 04:25:15;;;;;;;0.90;0.22;;;10.00;99.90;;;;;;4973066;28;20050;-69
2024/03/16 04:27:46;;;;;;;0.57;0.30;;;10.00;99.90;;;;;;4969719;28;20361;-69
2024/03/16 04:30:13;;;;;;;1.55;0.43;;;9.90;99.90;;;;;;4972719;28;20499;-69
2024/03/16 04:32:39;;;;;;;1.48;0.30;;;9.80;99.90;;;;;;4972992;28;20038;-70
2024/03/16 04:35:06;;;;;;;1.42;0.40;;;9.80;99.90;;;;;;4969687;28;20035;-70
2024/03/16 04:37:33;;;;;;;0.22;0.22;;;9.80;99.90;;;;;;4970968;28;20038;-70
2024/03/16 04:39:59;;;;;;;1.63;0.40;;;9.80;99.90;;;;;;4970104;28;20416;-70
2024/03/16 04:42:25;;;;;;;1.23;0.60;;;9.80;99.90;;;;;;4971732;28;20137;-70
2024/03/16 04:44:51;;;;;;;0.38;0.32;;;9.70;99.90;;;;;;4970951;28;20026;-69
2024/03/16 04:47:17;;;;;;;2.35;0.40;;;9.70;99.90;;;;;;4970714;28;20392;-69
2024/03/16 04:49:44;;;;;;;0.80;0.30;;;9.70;99.90;;;;;;4984828;28;20079;-70
2024/03/16 04:52:10;;;;;;;0.75;0.38;;;9.70;99.90;;;;;;4971598;28;20164;-69
2024/03/16 04:54:36;;;;;;;0.45;0.30;;;9.70;99.90;;;;;;4970742;28;20148;-70
2024/03/16 04:57:02;;;;;;;0.40;0.40;;;9.70;99.90;;;;;;4977908;28;20038;-70
2024/03/16 04:59:28;;;;;;;7.25;0.55;;;9.60;99.90;;;;;;4982013;28;20027;-70
2024/03/16 05:01:53;;;;;;;1.52;0.70;;;9.60;99.90;;;;;;4970028;28;20061;-70
2024/03/16 05:04:19;;;;;;;3.17;0.57;;;9.60;99.90;;;;;;4971852;28;20499;-70
2024/03/16 05:06:45;;;;;;;2.60;0.80;;;9.60;99.90;;;;;;4970424;28;20034;-70
2024/03/16 05:09:11;;;;;;;0.00;0.00;;;9.60;99.90;;;;;;4972449;28;20130;-70
2024/03/16 05:11:37;;;;;;;0.17;0.17;;;9.60;99.90;;;;;;4971765;28;20061;-69
2024/03/16 05:14:07;;;;;;;1.42;0.70;;;9.60;99.90;;;;;;4968773;28;20034;-71
2024/03/16 05:16:34;;;;;;;1.17;0.65;;;9.50;99.90;;;;;;4971044;28;20105;-69
2024/03/16 05:19:02;;;;;;;0.73;0.60;;;9.50;99.90;;;;;;4970923;28;20054;-70
2024/03/16 05:21:29;;;;;;;0.82;0.50;;;9.50;99.90;;;;;;4970314;28;20034;-70
2024/03/16 05:23:55;;;;;;;1.88;0.98;;;9.50;99.90;;;;;;4972397;28;20027;-70
2024/03/16 05:26:22;;;;;;;5.07;0.60;;;9.50;99.90;;;;;;4970121;28;20069;-70
2024/03/16 05:28:48;;;;;;;0.82;0.38;;;9.50;99.90;;;;;;4971428;28;20058;-70
2024/03/16 05:31:14;;;;;;;0.63;0.52;;;9.60;99.90;;;;;;4970299;28;20040;-70
2024/03/16 05:33:39;;;;;;;2.10;0.82;;;9.60;99.90;;;;;;4971912;28;20114;-70
2024/03/16 05:36:06;;;;;;;0.82;0.65;;;9.60;99.90;;;;;;4967817;28;20119;-69
2024/03/16 05:38:32;;;;;;;1.05;0.55;;;9.60;99.90;;;;;;4986556;28;20034;-69
2024/03/16 05:40:58;;;;;;;0.65;0.45;;;9.60;99.90;;;;;;4970201;28;20598;-72
2024/03/16 05:43:25;;;;;;;0.75;0.35;;;9.60;99.90;;;;;;4972996;28;20110;-69
2024/03/16 05:45:51;;;;;;;2.22;0.50;;;9.60;99.90;;;;;;4970849;28;20022;-70
2024/03/16 05:48:17;;;;;;;1.85;0.63;;;9.60;99.90;;;;;;4970917;28;20062;-69
2024/03/16 05:50:44;;;;;;;1.33;0.90;;;9.60;99.90;;;;;;4969969;28;20375;-71
2024/03/16 05:53:11;;;;;;;3.03;0.80;;;9.60;99.90;;;;;;4973162;28;20039;-69
2024/03/16 05:55:38;;;;;;;0.40;0.35;;;9.60;99.90;;;;;;4973141;28;20038;-69
2024/03/16 05:58:05;;;;;;;1.42;0.70;;;9.60;99.90;;;;;;4988938;28;20026;-70
2024/03/16 06:00:32;;;;;;;3.75;1.40;;;9.60;99.90;;;;;;4971996;28;20023;-71
2024/03/16 06:02:59;;;;;;;0.80;0.55;;;9.70;99.90;;;;;;4997452;28;20023;-70
2024/03/16 06:05:25;;;;;;;0.55;0.30;;;9.70;99.90;;;;;;4955066;28;20023;-70
2024/03/16 06:07:51;;;;;;;2.58;1.08;;;9.70;99.90;;;;;;4988877;28;20026;-68
2024/03/16 06:10:17;;;;;;;1.17;0.45;;;9.70;99.90;;;;;;4974272;28;20118;-69
2024/03/16 06:12:43;;;;;;;0.93;0.47;;;9.70;99.90;;;;;;4992912;28;20034;-69
2024/03/16 06:15:10;;;;;;;1.85;0.90;;;9.80;99.90;;;;;;4981353;28;20042;-69
2024/03/16 06:17:36;;;;;;;0.43;0.35;;;9.80;99.90;;;;;;4983669;28;20058;-70
2024/03/16 06:20:05;;;;;;;0.43;0.20;;;9.90;99.90;;;;;;4986043;28;20058;-71
2024/03/16 06:22:31;;;;;;;1.08;0.30;;;9.90;99.90;;;;;;4975911;28;20034;-69
2024/03/16 06:24:57;;;;;;;1.48;0.50;;;9.90;99.90;;;;;;4983797;28;20654;-70
2024/03/16 06:27:25;;;;;;;1.70;1.02;;;10.00;99.90;;;;;;4974595;28;20127;-69
2024/03/16 06:29:55;;;;;;;0.50;0.30;;;10.00;99.90;;;;;;4974039;28;20499;-69
2024/03/16 06:32:24;;;;;;;0.77;0.40;;;10.00;99.90;;;;;;4964465;28;20022;-70
2024/03/16 06:34:50;;;;;;;0.90;0.52;;;10.00;99.90;;;;;;4965866;28;20509;-70
2024/03/16 06:37:19;;;;;;;1.10;0.40;;;10.10;99.90;;;;;;4971178;28;20494;-69
2024/03/16 06:39:48;;;;;;;1.15;0.38;;;10.10;99.90;;;;;;4970178;28;20038;-70
2024/03/16 06:42:14;;;;;;;1.13;0.52;;;10.20;99.90;;;;;;4974756;28;20046;-71
2024/03/16 06:44:39;;;;;;;0.80;0.57;;;10.20;99.90;;;;;;4974349;28;20030;-70
2024/03/16 06:47:06;;;;;;;0.40;0.30;;;10.20;99.90;;;;;;4990221;28;20027;-72
2024/03/16 06:49:32;;;;;;;0.60;0.40;;;10.30;99.90;;;;;;4972101;28;20038;-71
2024/03/16 06:51:58;;;;;;;1.33;0.40;;;10.40;99.90;;;;;;4974079;28;20045;-71
2024/03/16 06:54:23;;;;;;;0.20;0.20;;;10.50;99.90;;;;;;4981285;28;20026;-71
2024/03/16 06:56:49;;;;;;;2.33;0.77;;;10.50;99.90;;;;;;4994690;28;20034;-71
2024/03/16 06:59:15;;;;;;;1.05;0.57;;;10.50;99.90;;;;;;4987437;28;20058;-71
2024/03/16 07:01:41;;;;;;;0.38;0.38;;;10.50;99.90;;;;;;4976879;28;20084;-71
2024/03/16 07:04:07;;;;;;;0.45;0.30;;;10.50;99.90;;;;;;4971822;28;20034;-69
2024/03/16 07:06:32;;;;;;;5.18;0.40;;;10.50;99.90;;;;;;4977247;28;20042;-71
2024/03/16 07:09:01;;;;;;;0.95;0.40;;;10.50;99.90;;;;;;4977723;28;20028;-70
2024/03/16 07:11:27;;;;;;;0.40;0.35;;;10.50;99.90;;;;;;4983458;28;20026;-70
2024/03/16 07:13:53;;;;;;;0.57;0.32;;;10.60;99.90;;;;;;4970403;28;20108;-69
2024/03/16 07:16:21;;;;;;;0.30;0.30;;;10.70;99.90;;;;;;4982017;28;20089;-72
2024/03/16 07:18:47;;;;;;;8.15;0.77;;;10.60;99.90;;;;;;4970042;28;20439;-71
2024/03/16 07:21:19;;;;;;;0.63;0.50;;;10.60;99.90;;;;;;4972865;28;20031;-71
2024/03/16 07:23:48;;;;;;;0.85;0.57;;;10.60;99.90;;;;;;4973875;28;20054;-70
2024/03/16 07:26:14;;;;;;;2.28;0.80;;;10.70;99.90;;;;;;4973081;28;20035;-71
2024/03/16 07:28:40;;;;;;;1.70;0.98;;;10.70;99.90;;;;;;4961444;28;20046;-71
2024/03/16 07:31:07;;;;;;;1.33;0.73;;;10.70;99.90;;;;;;4973737;28;20023;-71
2024/03/16 07:33:34;;;;;;;0.88;0.47;;;10.60;99.90;;;;;;4969792;28;20034;-72
2024/03/16 07:36:01;;;;;;;0.60;0.43;;;10.50;99.90;;;;;;4973466;28;20037;-71
2024/03/16 07:38:27;;;;;;;1.63;0.50;;;10.60;99.90;;;;;;4965151;28;20522;-71
2024/03/16 07:40:53;;;;;;;2.20;0.57;;;10.60;99.90;;;;;;4974500;28;20471;-71
2024/03/16 07:43:18;;;;;;;2.28;0.90;;;10.70;99.90;;;;;;4967430;28;20027;-71
2024/03/16 07:45:51;;;;;;;0.25;0.20;;;10.70;99.90;;;;;;4972975;28;20023;-71
2024/03/16 07:48:16;;;;;;;3.60;1.52;;;10.80;99.90;;;;;;4975061;28;20030;-71
2024/03/16 07:50:42;;;;;;;3.88;0.40;;;10.90;99.90;;;;;;4969802;28;20483;-71
2024/03/16 07:53:10;;;;;;;4.60;0.40;;;11.00;99.90;;;;;;4979409;28;20109;-72
2024/03/16 07:55:38;;;;;;;2.22;0.55;;;11.10;99.90;;;;;;4974987;28;20034;-71
2024/03/16 07:58:04;;;;;;;3.10;0.88;;;11.20;99.90;;;;;;4973393;28;20057;-70
2024/03/16 08:00:30;;;;;;;2.47;0.93;;;11.30;99.90;;;;;;4971174;28;20040;-70
2024/03/16 08:02:55;;;;;;;1.35;0.60;;;11.40;99.90;;;;;;4974878;28;20102;-71
2024/03/16 08:05:21;;;;;;;1.08;0.47;;;11.40;99.90;;;;;;4971223;28;20142;-70
2024/03/16 08:07:47;;;;;;;1.00;0.55;;;11.40;99.90;;;;;;4969988;28;20074;-72
2024/03/16 08:10:13;;;;;;;1.10;0.35;;;11.40;99.90;;;;;;4970233;28;20035;-71
2024/03/16 08:12:39;;;;;;;1.77;0.85;;;11.60;99.90;;;;;;4969691;28;20161;-71
2024/03/16 08:15:06;;;;;;;0.70;0.30;;;11.70;99.90;;;;;;4975528;28;20446;-71
2024/03/16 08:17:32;;;;;;;0.70;0.43;;;11.70;99.90;;;;;;4971465;28;20026;-71
2024/03/16 08:19:58;;;;;;;2.15;0.40;;;11.80;99.90;;;;;;4971259;28;20026;-72
2024/03/16 08:22:24;;;;;;;0.38;0.30;;;11.90;99.90;;;;;;4971322;28;20027;-71
2024/03/16 08:24:50;;;;;;;5.10;0.55;;;11.70;99.90;;;;;;4972147;28;20026;-71
2024/03/16 08:27:18;;;;;;;1.88;0.55;;;11.90;99.90;;;;;;4973549;28;20121;-71
2024/03/16 08:29:44;;;;;;;13.43;5.88;;;11.90;99.90;;;;;;4986029;28;20035;-70
2024/03/16 08:32:12;;;;;;;0.70;0.55;;;11.90;99.90;;;;;;4985010;28;20049;-71
2024/03/16 08:34:38;;;;;;;3.78;0.95;;;12.00;99.90;;;;;;4979802;28;20042;-71
2024/03/16 08:37:04;;;;;;;0.82;0.63;;;12.00;99.90;;;;;;4973388;28;20034;-71
2024/03/16 08:39:31;;;;;;;0.77;0.63;;;12.00;99.90;;;;;;4950450;28;20031;-71
2024/03/16 08:41:57;;;;;;;2.25;0.50;;;12.10;99.90;;;;;;4978837;28;20030;-70
2024/03/16 08:44:23;;;;;;;1.40;0.68;;;12.10;99.90;;;;;;4973262;28;20097;-71
2024/03/16 08:46:49;;;;;;;1.08;0.40;;;12.10;99.90;;;;;;4986954;28;20098;-74
2024/03/16 08:49:15;;;;;;;5.45;1.05;;;12.30;99.90;;;;;;4973397;28;20093;-70
2024/03/16 08:51:40;;;;;;;0.98;0.43;;;12.40;99.90;;;;;;4987013;28;20034;-71
2024/03/16 08:54:06;;;;;;;3.47;0.60;;;12.50;99.90;;;;;;4977751;28;20034;-69
2024/03/16 08:56:32;;;;;;;2.30;0.55;;;12.60;99.90;;;;;;4981637;28;20042;-69
2024/03/16 08:58:58;;;;;;;1.50;0.93;;;12.80;99.90;;;;;;4965298;28;20106;-70
2024/03/16 09:01:24;;;;;;;0.98;0.50;;;12.80;99.90;;;;;;4974214;28;20561;-70
2024/03/16 09:03:50;;;;;;;2.55;0.32;;;12.70;99.90;;;;;;4972131;28;20027;-70
2024/03/16 09:06:17;;;;;;;0.98;0.30;;;12.80;99.90;;;;;;4972616;28;20436;-70
2024/03/16 09:08:43;;;;;;;1.60;0.68;;;12.90;99.90;;;;;;4964354;28;20545;-71
2024/03/16 09:11:09;;;;;;;3.03;1.27;;;12.90;99.90;;;;;;4973070;28;20051;-70
2024/03/16 09:13:35;;;;;;;0.75;0.45;;;12.90;99.90;;;;;;4963920;28;20030;-70
2024/03/16 09:16:05;;;;;;;6.47;0.57;;;13.00;99.90;;;;;;4980635;28;20030;-70
2024/03/16 09:18:38;;;;;;;1.50;0.70;;;12.90;99.90;;;;;;4963892;28;20072;-70
2024/03/16 09:21:05;;;;;;;0.43;0.17;;;13.00;99.90;;;;;;4955646;28;20041;-70
2024/03/16 09:23:31;;;;;;;1.13;0.50;;;13.10;99.90;;;;;;4963460;28;20031;-69
2024/03/16 09:25:57;;;;;;;0.93;0.55;;;13.20;99.90;;;;;;4972409;28;20038;-69
2024/03/16 09:28:23;;;;;;;2.63;0.77;;;13.20;99.90;;;;;;4964151;28;20486;-69
2024/03/16 09:30:49;;;;;;;2.63;1.55;;;13.20;99.90;;;;;;4972884;28;20035;-70
2024/03/16 09:33:15;;;;;;;0.90;0.55;;;13.30;99.90;;;;;;4964859;28;20042;-69
2024/03/16 09:35:42;;;;;;;7.95;1.30;;;13.30;99.90;;;;;;4976170;28;20037;-69
2024/03/16 09:38:08;;;;;;;2.05;1.27;;;13.40;99.90;;;;;;4978531;28;20031;-70
2024/03/16 09:40:43;;;;;;;0.77;0.45;;;13.50;99.90;;;;;;4988498;28;20427;-70
2024/03/16 09:43:10;;;;;;;3.25;0.88;;;13.40;99.90;;;;;;4980856;28;20027;-70
2024/03/16 09:45:36;;;;;;;2.45;0.85;;;13.40;99.90;;;;;;4991865;28;20069;-70
2024/03/16 09:48:04;;;;;;;0.88;0.60;;;13.40;99.90;;;;;;4977568;28;20042;-70
2024/03/16 09:50:32;;;;;;;2.60;0.75;;;13.40;99.90;;;;;;4970423;28;20038;-69
2024/03/16 09:52:59;;;;;;;2.83;1.02;;;13.30;99.90;;;;;;4977587;28;20059;-69
2024/03/16 09:55:27;;;;;;;3.85;0.65;;;13.10;99.90;;;;;;4975014;28;20043;-70
2024/03/16 09:57:53;;;;;;;2.92;0.32;;;13.00;99.90;;;;;;4970926;28;20031;-70
2024/03/16 10:00:21;;;;;;;0.45;0.30;;;12.90;99.90;;;;;;4973298;28;20062;-70
2024/03/16 10:02:47;;;;;;;1.52;0.50;;;12.80;99.90;;;;;;4971389;28;20053;-71
2024/03/16 10:05:13;;;;;;;0.98;0.30;;;12.90;99.90;;;;;;4983350;28;20093;-70
2024/03/16 10:07:39;;;;;;;0.45;0.32;;;13.10;99.90;;;;;;4979205;28;20035;-70
2024/03/16 10:10:10;;;;;;;0.43;0.30;;;13.20;99.90;;;;;;4986059;28;20615;-70
2024/03/16 10:12:40;;;;;;;0.40;0.40;;;13.40;99.90;;;;;;4971894;28;20738;-70
2024/03/16 10:15:19;;;;;;;0.50;0.30;;;13.50;99.90;;;;;;4981984;28;20035;-70
2024/03/16 10:17:46;;;;;;;1.20;0.50;;;13.60;99.90;;;;;;4965909;28;20030;-71
2024/03/16 10:20:18;;;;;;;0.80;0.50;;;13.60;99.90;;;;;;4974542;28;20023;-70
2024/03/16 10:22:50;;;;;;;1.08;0.57;;;13.70;99.90;;;;;;4966848;28;20429;-70
2024/03/16 10:25:17;;;;;;;2.63;0.45;;;13.70;99.90;;;;;;4972802;28;20031;-69
2024/03/16 10:27:44;;;;;;;0.73;0.45;;;13.80;99.90;;;;;;4973840;28;20034;-70
2024/03/16 10:30:14;;;;;;;1.05;0.50;;;13.90;99.90;;;;;;4975873;28;20065;-70
2024/03/16 10:32:48;;;;;;;1.50;0.47;;;14.00;99.90;;;;;;4975317;28;20082;-71
2024/03/16 10:35:18;;;;;;;1.00;0.47;;;14.10;99.90;;;;;;4974080;28;20027;-71
2024/03/16 10:37:47;;;;;;;0.40;0.22;;;14.10;99.90;;;;;;4971107;28;20027;-70
2024/03/16 10:40:16;;;;;;;0.68;0.43;;;14.00;99.90;;;;;;4972740;28;20061;-69
2024/03/16 10:42:50;;;;;;;2.97;0.68;;;14.00;99.90;;;;;;4971051;28;20042;-70
2024/03/16 10:45:20;;;;;;;1.38;0.50;;;13.90;99.90;;;;;;4974184;28;20151;-71
2024/03/16 10:47:54;;;;;;;0.32;0.30;;;13.80;99.90;;;;;;4964494;28;20034;-71
2024/03/16 10:50:29;;;;;;;3.40;0.88;;;13.70;99.90;;;;;;4974568;28;20034;-69
2024/03/16 10:52:55;;;;;;;0.85;0.55;;;13.80;99.90;;;;;;4976288;28;20066;-70
2024/03/16 10:55:24;;;;;;;1.25;0.17;;;14.10;99.90;;;;;;4972242;28;20089;-69
2024/03/16 10:57:54;;;;;;;1.10;0.50;;;14.20;99.90;;;;;;4954385;28;20460;-68
2024/03/16 11:00:26;;;;;;;0.57;0.32;;;14.20;99.90;;;;;;4972486;28;20030;-68
2024/03/16 11:03:07;;;;;;;2.05;1.33;;;14.00;99.90;;;;;;4969505;28;20035;-69
2024/03/16 11:05:36;;;;;;;;;;;14.10;99.90;;;;;;4987966;28;20361;-68
2024/03/16 11:08:14;;;;;;;1.15;0.50;;;14.30;99.90;;;;;;4969172;28;19923;-69
2024/03/16 11:10:42;;;;;;;1.63;0.35;;;14.50;99.90;;;;;;4974950;28;20026;-69
2024/03/16 11:13:21;;;;;;;0.65;0.40;;;14.60;99.90;;;;;;4968534;28;20027;-69
2024/03/16 11:15:48;;;;;;;0.10;0.10;;;15.20;99.90;;;;;;4967471;28;20557;-70
2024/03/16 11:18:19;;;;;;;3.92;0.32;;;15.50;99.90;;;;;;4972519;28;20034;-69
2024/03/16 11:20:57;;;;;;;1.05;0.20;;;15.50;99.90;;;;;;4967182;28;20038;-69
2024/03/16 11:23:28;;;;;;;0.10;0.10;;;15.50;99.90;;;;;;4965563;28;20023;-70
2024/03/16 11:25:55;;;;;;;0.55;0.03;;;15.10;99.90;;;;;;4973308;28;20022;-69
2024/03/16 11:28:22;;;;;;;0.25;0.20;;;14.80;99.90;;;;;;4974281;28;20039;-69
2024/03/16 11:30:52;;;;;;;0.10;0.10;;;15.00;99.90;;;;;;4974170;28;20061;-70
2024/03/16 11:33:28;;;;;;;0.50;0.30;;;15.50;99.90;;;;;;4970422;28;20066;-69
2024/03/16 11:35:59;;;;;;;0.40;0.30;;;16.00;99.90;;;;;;4976425;28;20051;-69
2024/03/16 11:38:25;;;;;;;0.35;0.32;;;16.50;99.90;;;;;;4976271;28;20053;-69
2024/03/16 11:40:51;;;;;;;0.43;0.20;;;16.60;99.90;;;;;;4977779;28;20543;-68
2024/03/16 11:43:17;;;;;;;0.40;0.20;;;16.90;99.90;;;;;;4972303;28;20043;-69
2024/03/16 11:45:46;;;;;;;0.15;0.10;;;16.70;99.90;;;;;;4991631;28;20030;-69
2024/03/16 11:48:16;;;;;;;0.82;0.25;;;16.20;99.90;;;;;;4970179;28;20049;-68
2024/03/16 11:50:43;;;;;;;0.10;0.10;;;15.80;99.90;;;;;;4986297;28;20031;-69
2024/03/16 11:53:09;;;;;;;0.25;0.13;;;15.60;99.90;;;;;;4974702;28;20035;-68
2024/03/16 11:55:37;;;;;;;0.38;0.20;;;15.30;99.90;;;;;;4981303;28;20106;-68
2024/03/16 11:58:09;;;;;;;0.10;0.10;;;14.60;99.90;;;;;;4956196;28;20061;-69
2024/03/16 12:00:35;;;;;;;0.13;0.05;;;14.00;99.90;;;;;;4975368;28;20046;-69
2024/03/16 12:03:05;;;;;;;0.10;0.10;;;13.70;99.90;;;;;;4986483;28;20090;-69
2024/03/16 12:05:34;;;;;;;0.40;0.20;;;13.50;99.90;;;;;;4974190;28;20027;-69
2024/03/16 12:08:04;;;;;;;1.02;0.32;;;13.30;99.90;;;;;;4972272;28;20115;-69
2024/03/16 12:10:31;;;;;;;2.08;0.45;;;13.10;99.90;;;;;;4973376;28;20043;-69
2024/03/16 12:12:57;;;;;;;0.52;0.38;;;13.00;99.90;;;;;;4976002;28;20141;-68
2024/03/16 12:15:25;;;;;;;0.43;0.35;;;13.00;99.90;;;;;;4978477;28;20031;-70
2024/03/16 12:17:52;;;;;;;1.85;0.60;;;13.00;99.90;;;;;;4963838;28;20023;-69
2024/03/16 12:20:19;;;;;;;3.03;0.47;;;12.90;99.90;;;;;;4988362;28;20038;-69
2024/03/16 12:22:49;;;;;;;22.35;1.17;;;12.90;99.90;;;;;;4972432;28;20018;-70
2024/03/16 12:25:16;;;;;;;0.43;0.30;;;12.70;99.90;;;;;;4969100;28;20027;-70
2024/03/16 12:27:49;;;;;;;5.18;0.80;;;12.60;99.90;;;;;;4988660;28;20081;-69
2024/03/16 12:30:15;;;;;;;0.60;0.50;;;12.60;99.90;;;;;;4959763;28;20047;-69
2024/03/16 12:32:41;;;;;;;1.08;0.45;;;12.50;99.90;;;;;;4960445;28;20023;-70
2024/03/16 12:35:12;;;;;;;0.98;0.60;;;12.60;99.90;;;;;;4970423;28;20038;-69
2024/03/16 12:37:42;;;;;;;0.50;0.25;;;12.60;99.90;;;;;;4973575;28;20033;-68
2024/03/16 12:40:08;;;;;;;0.50;0.30;;;12.70;99.90;;;;;;4970844;28;20117;-69
2024/03/16 12:42:34;;;;;;;2.78;1.10;;;13.00;99.90;;;;;;4977590;28;20059;-68
2024/03/16 12:45:00;;;;;;;0.93;0.50;;;13.30;99.90;;;;;;4989492;28;20026;-68
2024/03/16 12:47:27;;;;;;;0.93;0.47;;;13.40;99.90;;;;;;4972950;28;20031;-69
2024/03/16 12:49:55;;;;;;;1.17;0.43;;;13.30;99.90;;;;;;4973431;28;20517;-70
2024/03/16 12:52:25;;;;;;;0.73;0.57;;;13.30;99.90;;;;;;4975611;28;20122;-70